Argyle Township, Maine
Current Conditions -  °F | °C
As of 10:53 AM on Thursday 30 Oct 2014 (Local Time) from KBGR Reporting Station
Broken Clouds Broken Clouds  
Wind Chill: 50°   Ceiling: 9000
Heat Index: 50°   Visibility: 10mi
Dew Point: 42°   Wind: 5mph
Humidity: 74%   Direction: 260°W
Pressure: 29.88"   Gusts: NA
Location:  45.0236°N, 68.7394°W
Report Text: KBGR 301453Z 26004KT 10SM SCT075 BKN090 10/06 A2988 RMK AO2 SLP116 T01000056 51002
Loading
Personal Weather Stations






























Interactive Weather Map New forecast layout! Learn more

10-Day Weather Forecast

Advertisements
Track Severe Weather on mobile